sensor_id;sensor_type;location;lat;lon;timestamp;temperature;humidity
11700;DHT22;5906;51.660;6.674;2023-05-14T00:00:15;13.40;99.90
11700;DHT22;5906;51.660;6.674;2023-05-14T00:02:42;13.40;99.90
11700;DHT22;5906;51.660;6.674;2023-05-14T00:05:09;13.30;99.90
11700;DHT22;5906;51.660;6.674;2023-05-14T00:07:36;13.30;99.90
11700;DHT22;5906;51.660;6.674;2023-05-14T00:10:03;13.30;99.90
11700;DHT22;5906;51.660;6.674;2023-05-14T00:12:31;13.20;99.90
11700;DHT22;5906;51.660;6.674;2023-05-14T00:14:58;13.10;99.90
11700;DHT22;5906;51.660;6.674;2023-05-14T00:17:25;13.00;99.90
11700;DHT22;5906;51.660;6.674;2023-05-14T00:19:52;12.90;99.90
11700;DHT22;5906;51.660;6.674;2023-05-14T00:22:19;12.80;99.90
11700;DHT22;5906;51.660;6.674;2023-05-14T00:24:46;12.80;99.90
11700;DHT22;5906;51.660;6.674;2023-05-14T00:27:13;12.70;99.90
11700;DHT22;5906;51.660;6.674;2023-05-14T00:29:40;12.60;99.90
11700;DHT22;5906;51.660;6.674;2023-05-14T00:32:07;12.60;99.90
11700;DHT22;5906;51.660;6.674;2023-05-14T00:34:34;12.50;99.90
11700;DHT22;5906;51.660;6.674;2023-05-14T00:37:02;12.40;99.90
11700;DHT22;5906;51.660;6.674;2023-05-14T00:39:29;12.40;99.90
11700;DHT22;5906;51.660;6.674;2023-05-14T00:41:56;12.30;99.90
11700;DHT22;5906;51.660;6.674;2023-05-14T00:44:23;12.30;99.90
11700;DHT22;5906;51.660;6.674;2023-05-14T00:46:51;12.20;99.90
11700;DHT22;5906;51.660;6.674;2023-05-14T00:49:19;12.20;99.90
11700;DHT22;5906;51.660;6.674;2023-05-14T00:51:46;12.10;99.90
11700;DHT22;5906;51.660;6.674;2023-05-14T00:54:15;12.10;99.90
11700;DHT22;5906;51.660;6.674;2023-05-14T00:56:44;12.10;99.90
11700;DHT22;5906;51.660;6.674;2023-05-14T00:59:12;12.10;99.90
11700;DHT22;5906;51.660;6.674;2023-05-14T01:01:39;12.10;99.90
11700;DHT22;5906;51.660;6.674;2023-05-14T01:04:08;12.00;99.90
11700;DHT22;5906;51.660;6.674;2023-05-14T01:15:29;11.90;99.90
11700;DHT22;5906;51.660;6.674;2023-05-14T01:20:32;11.80;99.90
11700;DHT22;5906;51.660;6.674;2023-05-14T01:22:59;11.70;99.90
11700;DHT22;5906;51.660;6.674;2023-05-14T01:25:27;11.70;99.90
11700;DHT22;5906;51.660;6.674;2023-05-14T01:28:18;11.70;99.90
11700;DHT22;5906;51.660;6.674;2023-05-14T01:31:05;11.60;99.90
11700;DHT22;5906;51.660;6.674;2023-05-14T01:33:34;11.60;99.90
11700;DHT22;5906;51.660;6.674;2023-05-14T01:36:03;11.50;99.90
11700;DHT22;5906;51.660;6.674;2023-05-14T01:38:30;11.50;99.90
11700;DHT22;5906;51.660;6.674;2023-05-14T01:41:00;11.50;99.90
11700;DHT22;5906;51.660;6.674;2023-05-14T01:43:28;11.40;99.90
11700;DHT22;5906;51.660;6.674;2023-05-14T01:45:55;11.40;99.90
11700;DHT22;5906;51.660;6.674;2023-05-14T01:48:22;11.40;99.90
11700;DHT22;5906;51.660;6.674;2023-05-14T01:50:50;11.40;99.90
11700;DHT22;5906;51.660;6.674;2023-05-14T01:53:17;11.30;99.90
11700;DHT22;5906;51.660;6.674;2023-05-14T01:55:44;11.30;99.90
11700;DHT22;5906;51.660;6.674;2023-05-14T01:58:11;11.30;99.90
11700;DHT22;5906;51.660;6.674;2023-05-14T02:00:39;11.20;99.90
11700;DHT22;5906;51.660;6.674;2023-05-14T02:03:06;11.20;99.90
11700;DHT22;5906;51.660;6.674;2023-05-14T02:05:33;11.20;99.90
11700;DHT22;5906;51.660;6.674;2023-05-14T02:08:00;11.20;99.90
11700;DHT22;5906;51.660;6.674;2023-05-14T02:10:27;11.10;99.90
11700;DHT22;5906;51.660;6.674;2023-05-14T02:12:55;11.10;99.90
11700;DHT22;5906;51.660;6.674;2023-05-14T02:15:22;11.10;99.90
11700;DHT22;5906;51.660;6.674;2023-05-14T02:17:49;11.00;99.90
11700;DHT22;5906;51.660;6.674;2023-05-14T02:20:16;11.00;99.90
11700;DHT22;5906;51.660;6.674;2023-05-14T02:22:43;10.90;99.90
11700;DHT22;5906;51.660;6.674;2023-05-14T02:25:11;10.90;99.90
11700;DHT22;5906;51.660;6.674;2023-05-14T02:27:38;10.90;99.90
11700;DHT22;5906;51.660;6.674;2023-05-14T02:30:06;10.90;99.90
11700;DHT22;5906;51.660;6.674;2023-05-14T02:32:33;10.90;99.90
11700;DHT22;5906;51.660;6.674;2023-05-14T02:35:00;10.90;99.90
11700;DHT22;5906;51.660;6.674;2023-05-14T02:37:27;10.80;99.90
11700;DHT22;5906;51.660;6.674;2023-05-14T02:39:54;10.70;99.90
11700;DHT22;5906;51.660;6.674;2023-05-14T02:42:21;10.70;99.90
11700;DHT22;5906;51.660;6.674;2023-05-14T02:44:48;10.70;99.90
11700;DHT22;5906;51.660;6.674;2023-05-14T02:47:17;10.60;99.90
11700;DHT22;5906;51.660;6.674;2023-05-14T02:49:44;10.60;99.90
11700;DHT22;5906;51.660;6.674;2023-05-14T02:52:11;10.60;99.90
11700;DHT22;5906;51.660;6.674;2023-05-14T02:54:38;10.60;99.90
11700;DHT22;5906;51.660;6.674;2023-05-14T02:57:06;10.50;99.90
11700;DHT22;5906;51.660;6.674;2023-05-14T02:59:33;10.50;99.90
11700;DHT22;5906;51.660;6.674;2023-05-14T03:02:01;10.50;99.90
11700;DHT22;5906;51.660;6.674;2023-05-14T03:04:28;10.40;99.90
11700;DHT22;5906;51.660;6.674;2023-05-14T03:06:55;10.40;99.90
11700;DHT22;5906;51.660;6.674;2023-05-14T03:09:22;10.40;99.90
11700;DHT22;5906;51.660;6.674;2023-05-14T03:11:49;10.40;99.90
11700;DHT22;5906;51.660;6.674;2023-05-14T03:14:16;10.30;99.90
11700;DHT22;5906;51.660;6.674;2023-05-14T03:16:43;10.30;99.90
11700;DHT22;5906;51.660;6.674;2023-05-14T03:19:10;10.30;99.90
11700;DHT22;5906;51.660;6.674;2023-05-14T03:21:38;10.20;99.90
11700;DHT22;5906;51.660;6.674;2023-05-14T03:24:05;10.30;99.90
11700;DHT22;5906;51.660;6.674;2023-05-14T03:26:32;10.20;99.90
11700;DHT22;5906;51.660;6.674;2023-05-14T03:28:59;10.10;99.90
11700;DHT22;5906;51.660;6.674;2023-05-14T03:31:26;10.10;99.90
11700;DHT22;5906;51.660;6.674;2023-05-14T03:33:53;10.10;99.90
11700;DHT22;5906;51.660;6.674;2023-05-14T03:36:20;10.10;99.90
11700;DHT22;5906;51.660;6.674;2023-05-14T03:38:47;10.10;99.90
11700;DHT22;5906;51.660;6.674;2023-05-14T03:41:14;10.00;99.90
11700;DHT22;5906;51.660;6.674;2023-05-14T03:43:41;10.00;99.90
11700;DHT22;5906;51.660;6.674;2023-05-14T03:46:08;10.00;99.90
11700;DHT22;5906;51.660;6.674;2023-05-14T03:48:35;10.00;99.90
11700;DHT22;5906;51.660;6.674;2023-05-14T03:51:02;10.00;99.90
11700;DHT22;5906;51.660;6.674;2023-05-14T03:53:29;10.00;99.90
11700;DHT22;5906;51.660;6.674;2023-05-14T03:55:56;9.90;99.90
11700;DHT22;5906;51.660;6.674;2023-05-14T03:58:23;9.90;99.90
11700;DHT22;5906;51.660;6.674;2023-05-14T04:00:50;9.90;99.90
11700;DHT22;5906;51.660;6.674;2023-05-14T04:03:17;9.90;99.90
11700;DHT22;5906;51.660;6.674;2023-05-14T04:05:44;9.90;99.90
11700;DHT22;5906;51.660;6.674;2023-05-14T04:08:11;9.90;99.90
11700;DHT22;5906;51.660;6.674;2023-05-14T04:10:38;10.00;99.90
11700;DHT22;5906;51.660;6.674;2023-05-14T04:13:05;10.00;99.90
11700;DHT22;5906;51.660;6.674;2023-05-14T04:15:32;10.00;99.90
11700;DHT22;5906;51.660;6.674;2023-05-14T04:18:01;10.00;99.90
11700;DHT22;5906;51.660;6.674;2023-05-14T04:20:28;10.00;99.90
11700;DHT22;5906;51.660;6.674;2023-05-14T04:22:55;10.00;99.90
11700;DHT22;5906;51.660;6.674;2023-05-14T04:25:22;10.00;99.90
11700;DHT22;5906;51.660;6.674;2023-05-14T04:27:49;10.10;99.90
11700;DHT22;5906;51.660;6.674;2023-05-14T04:30:16;10.10;99.90
11700;DHT22;5906;51.660;6.674;2023-05-14T04:32:43;10.20;99.90
11700;DHT22;5906;51.660;6.674;2023-05-14T04:35:11;10.20;99.90
11700;DHT22;5906;51.660;6.674;2023-05-14T04:37:38;10.30;99.90
11700;DHT22;5906;51.660;6.674;2023-05-14T04:40:07;10.30;99.90
11700;DHT22;5906;51.660;6.674;2023-05-14T04:42:36;10.30;99.90
11700;DHT22;5906;51.660;6.674;2023-05-14T04:45:05;10.40;99.90
11700;DHT22;5906;51.660;6.674;2023-05-14T04:47:32;10.50;99.90
11700;DHT22;5906;51.660;6.674;2023-05-14T04:49:59;10.70;99.90
11700;DHT22;5906;51.660;6.674;2023-05-14T04:52:26;10.90;99.90
11700;DHT22;5906;51.660;6.674;2023-05-14T04:54:53;11.30;99.90
11700;DHT22;5906;51.660;6.674;2023-05-14T04:57:21;11.60;99.90
11700;DHT22;5906;51.660;6.674;2023-05-14T04:59:48;11.90;99.90
11700;DHT22;5906;51.660;6.674;2023-05-14T05:02:15;12.10;99.90
11700;DHT22;5906;51.660;6.674;2023-05-14T05:04:43;12.30;99.90
11700;DHT22;5906;51.660;6.674;2023-05-14T05:07:09;12.50;99.90
11700;DHT22;5906;51.660;6.674;2023-05-14T05:09:36;12.60;99.90
11700;DHT22;5906;51.660;6.674;2023-05-14T05:12:04;12.90;99.90
11700;DHT22;5906;51.660;6.674;2023-05-14T05:14:31;13.00;99.90
11700;DHT22;5906;51.660;6.674;2023-05-14T05:16:58;13.20;99.90
11700;DHT22;5906;51.660;6.674;2023-05-14T05:19:25;13.30;99.90
11700;DHT22;5906;51.660;6.674;2023-05-14T05:22:09;13.40;99.90
11700;DHT22;5906;51.660;6.674;2023-05-14T05:24:36;13.70;99.90
11700;DHT22;5906;51.660;6.674;2023-05-14T05:27:03;14.00;99.90
11700;DHT22;5906;51.660;6.674;2023-05-14T05:29:31;14.10;99.90
11700;DHT22;5906;51.660;6.674;2023-05-14T05:31:58;14.40;99.90
11700;DHT22;5906;51.660;6.674;2023-05-14T05:34:25;14.50;99.90
11700;DHT22;5906;51.660;6.674;2023-05-14T05:36:52;14.60;99.90
11700;DHT22;5906;51.660;6.674;2023-05-14T05:39:19;14.70;99.90
11700;DHT22;5906;51.660;6.674;2023-05-14T05:41:46;14.90;99.90
11700;DHT22;5906;51.660;6.674;2023-05-14T05:44:13;15.00;99.90
11700;DHT22;5906;51.660;6.674;2023-05-14T05:46:40;15.00;99.90
11700;DHT22;5906;51.660;6.674;2023-05-14T05:49:07;15.20;99.90
11700;DHT22;5906;51.660;6.674;2023-05-14T05:51:34;15.40;99.90
11700;DHT22;5906;51.660;6.674;2023-05-14T05:54:01;15.50;99.90
11700;DHT22;5906;51.660;6.674;2023-05-14T05:56:28;15.50;99.90
11700;DHT22;5906;51.660;6.674;2023-05-14T05:58:55;15.70;99.90
11700;DHT22;5906;51.660;6.674;2023-05-14T06:01:22;15.60;99.90
11700;DHT22;5906;51.660;6.674;2023-05-14T06:03:49;15.60;99.90
11700;DHT22;5906;51.660;6.674;2023-05-14T06:06:16;15.50;99.90
11700;DHT22;5906;51.660;6.674;2023-05-14T06:08:43;15.50;99.90
11700;DHT22;5906;51.660;6.674;2023-05-14T06:11:10;15.50;99.90
11700;DHT22;5906;51.660;6.674;2023-05-14T06:13:37;15.40;99.90
11700;DHT22;5906;51.660;6.674;2023-05-14T06:16:04;15.20;99.90
11700;DHT22;5906;51.660;6.674;2023-05-14T06:18:32;15.20;99.90
11700;DHT22;5906;51.660;6.674;2023-05-14T06:20:59;15.20;99.90
11700;DHT22;5906;51.660;6.674;2023-05-14T06:23:26;15.20;99.90
11700;DHT22;5906;51.660;6.674;2023-05-14T06:25:54;15.50;99.90
11700;DHT22;5906;51.660;6.674;2023-05-14T06:28:21;15.70;99.90
11700;DHT22;5906;51.660;6.674;2023-05-14T06:30:49;16.00;99.90
11700;DHT22;5906;51.660;6.674;2023-05-14T06:33:16;16.30;99.90
11700;DHT22;5906;51.660;6.674;2023-05-14T06:35:47;16.40;99.90
11700;DHT22;5906;51.660;6.674;2023-05-14T06:38:14;16.60;99.90
11700;DHT22;5906;51.660;6.674;2023-05-14T06:40:42;16.80;99.90
11700;DHT22;5906;51.660;6.674;2023-05-14T06:43:09;16.90;99.90
11700;DHT22;5906;51.660;6.674;2023-05-14T06:45:36;17.10;99.90
11700;DHT22;5906;51.660;6.674;2023-05-14T06:48:03;17.20;99.90
11700;DHT22;5906;51.660;6.674;2023-05-14T06:50:30;17.40;99.90
11700;DHT22;5906;51.660;6.674;2023-05-14T06:52:57;17.60;99.90
11700;DHT22;5906;51.660;6.674;2023-05-14T06:55:24;17.70;99.90
11700;DHT22;5906;51.660;6.674;2023-05-14T06:57:51;18.00;99.90
11700;DHT22;5906;51.660;6.674;2023-05-14T07:00:19;18.30;99.90
11700;DHT22;5906;51.660;6.674;2023-05-14T07:02:46;18.30;99.90
11700;DHT22;5906;51.660;6.674;2023-05-14T07:05:13;18.40;99.90
11700;DHT22;5906;51.660;6.674;2023-05-14T07:07:40;18.50;99.90
11700;DHT22;5906;51.660;6.674;2023-05-14T07:10:07;18.50;99.90
11700;DHT22;5906;51.660;6.674;2023-05-14T07:12:34;18.70;99.90
11700;DHT22;5906;51.660;6.674;2023-05-14T07:15:01;18.80;99.90
11700;DHT22;5906;51.660;6.674;2023-05-14T07:17:28;18.90;99.90
11700;DHT22;5906;51.660;6.674;2023-05-14T07:19:55;19.20;99.90
11700;DHT22;5906;51.660;6.674;2023-05-14T07:22:22;19.40;99.90
11700;DHT22;5906;51.660;6.674;2023-05-14T07:24:50;19.70;99.90
11700;DHT22;5906;51.660;6.674;2023-05-14T07:27:17;19.60;99.90
11700;DHT22;5906;51.660;6.674;2023-05-14T07:29:44;19.50;99.90
11700;DHT22;5906;51.660;6.674;2023-05-14T07:32:11;19.40;99.90
11700;DHT22;5906;51.660;6.674;2023-05-14T07:34:41;19.50;99.90
11700;DHT22;5906;51.660;6.674;2023-05-14T07:37:08;19.80;99.90
11700;DHT22;5906;51.660;6.674;2023-05-14T07:39:35;20.20;99.90
11700;DHT22;5906;51.660;6.674;2023-05-14T07:42:02;20.50;94.40
11700;DHT22;5906;51.660;6.674;2023-05-14T07:44:30;20.60;96.40
11700;DHT22;5906;51.660;6.674;2023-05-14T07:46:56;20.60;91.50
11700;DHT22;5906;51.660;6.674;2023-05-14T07:49:23;20.80;91.50
11700;DHT22;5906;51.660;6.674;2023-05-14T07:51:50;20.80;89.00
11700;DHT22;5906;51.660;6.674;2023-05-14T07:54:18;20.80;90.10
11700;DHT22;5906;51.660;6.674;2023-05-14T07:56:45;20.80;90.50
11700;DHT22;5906;51.660;6.674;2023-05-14T07:59:12;20.70;90.30
11700;DHT22;5906;51.660;6.674;2023-05-14T08:01:39;21.00;95.90
11700;DHT22;5906;51.660;6.674;2023-05-14T08:04:06;21.40;83.90
11700;DHT22;5906;51.660;6.674;2023-05-14T08:06:33;21.60;91.40
11700;DHT22;5906;51.660;6.674;2023-05-14T08:09:01;21.90;82.60
11700;DHT22;5906;51.660;6.674;2023-05-14T08:11:29;22.00;81.50
11700;DHT22;5906;51.660;6.674;2023-05-14T08:13:56;21.90;81.40
11700;DHT22;5906;51.660;6.674;2023-05-14T08:16:23;21.70;76.00
11700;DHT22;5906;51.660;6.674;2023-05-14T08:18:51;21.60;81.90
11700;DHT22;5906;51.660;6.674;2023-05-14T08:21:19;21.70;79.50
11700;DHT22;5906;51.660;6.674;2023-05-14T08:23:46;21.80;86.40
11700;DHT22;5906;51.660;6.674;2023-05-14T08:26:13;22.10;79.40
11700;DHT22;5906;51.660;6.674;2023-05-14T08:28:40;22.60;72.30
11700;DHT22;5906;51.660;6.674;2023-05-14T08:31:07;22.90;71.60
11700;DHT22;5906;51.660;6.674;2023-05-14T08:33:34;23.00;68.60
11700;DHT22;5906;51.660;6.674;2023-05-14T08:36:01;23.00;68.10
11700;DHT22;5906;51.660;6.674;2023-05-14T08:38:28;22.80;55.90
11700;DHT22;5906;51.660;6.674;2023-05-14T08:40:56;22.80;64.40
11700;DHT22;5906;51.660;6.674;2023-05-14T08:43:26;22.70;51.00
11700;DHT22;5906;51.660;6.674;2023-05-14T08:45:59;22.50;59.30
11700;DHT22;5906;51.660;6.674;2023-05-14T08:48:32;22.80;72.10
11700;DHT22;5906;51.660;6.674;2023-05-14T08:51:01;23.10;60.60
11700;DHT22;5906;51.660;6.674;2023-05-14T08:53:29;23.10;59.40
11700;DHT22;5906;51.660;6.674;2023-05-14T08:55:57;23.00;57.20
11700;DHT22;5906;51.660;6.674;2023-05-14T08:58:25;22.90;53.90
11700;DHT22;5906;51.660;6.674;2023-05-14T09:00:55;23.10;65.40
11700;DHT22;5906;51.660;6.674;2023-05-14T09:03:23;23.50;65.30
11700;DHT22;5906;51.660;6.674;2023-05-14T09:05:50;23.80;47.90
11700;DHT22;5906;51.660;6.674;2023-05-14T09:08:18;23.50;45.40
11700;DHT22;5906;51.660;6.674;2023-05-14T09:10:45;23.60;45.70
11700;DHT22;5906;51.660;6.674;2023-05-14T09:13:12;23.80;55.70
11700;DHT22;5906;51.660;6.674;2023-05-14T09:15:39;24.00;47.20
11700;DHT22;5906;51.660;6.674;2023-05-14T09:18:07;24.00;50.20
11700;DHT22;5906;51.660;6.674;2023-05-14T09:20:34;24.30;52.90
11700;DHT22;5906;51.660;6.674;2023-05-14T09:23:01;24.60;47.80
11700;DHT22;5906;51.660;6.674;2023-05-14T09:25:31;24.50;36.20
11700;DHT22;5906;51.660;6.674;2023-05-14T09:27:58;24.50;30.40
11700;DHT22;5906;51.660;6.674;2023-05-14T09:30:26;24.70;37.90
11700;DHT22;5906;51.660;6.674;2023-05-14T09:32:54;24.70;37.50
11700;DHT22;5906;51.660;6.674;2023-05-14T09:35:23;25.00;34.90
11700;DHT22;5906;51.660;6.674;2023-05-14T09:37:53;25.10;32.20
11700;DHT22;5906;51.660;6.674;2023-05-14T09:40:22;25.30;35.60
11700;DHT22;5906;51.660;6.674;2023-05-14T09:42:50;25.50;34.50
11700;DHT22;5906;51.660;6.674;2023-05-14T09:45:17;25.50;32.70
11700;DHT22;5906;51.660;6.674;2023-05-14T09:47:44;25.40;33.60
11700;DHT22;5906;51.660;6.674;2023-05-14T09:50:12;25.60;37.50
11700;DHT22;5906;51.660;6.674;2023-05-14T09:52:39;25.70;32.10
11700;DHT22;5906;51.660;6.674;2023-05-14T09:55:06;25.80;33.60
11700;DHT22;5906;51.660;6.674;2023-05-14T09:57:34;25.90;27.80
11700;DHT22;5906;51.660;6.674;2023-05-14T10:00:02;25.90;24.80
11700;DHT22;5906;51.660;6.674;2023-05-14T10:02:34;26.10;22.20
11700;DHT22;5906;51.660;6.674;2023-05-14T10:05:04;26.20;19.80
11700;DHT22;5906;51.660;6.674;2023-05-14T10:07:41;26.40;24.40
11700;DHT22;5906;51.660;6.674;2023-05-14T10:10:15;26.50;15.10
11700;DHT22;5906;51.660;6.674;2023-05-14T10:12:57;26.50;14.60
11700;DHT22;5906;51.660;6.674;2023-05-14T10:15:37;26.40;12.30
11700;DHT22;5906;51.660;6.674;2023-05-14T10:18:15;26.60;13.90
11700;DHT22;5906;51.660;6.674;2023-05-14T10:20:47;26.40;8.70
11700;DHT22;5906;51.660;6.674;2023-05-14T10:23:14;26.40;12.40
11700;DHT22;5906;51.660;6.674;2023-05-14T10:25:41;26.50;9.40
11700;DHT22;5906;51.660;6.674;2023-05-14T10:28:09;26.80;9.60
11700;DHT22;5906;51.660;6.674;2023-05-14T10:30:43;26.60;9.60
11700;DHT22;5906;51.660;6.674;2023-05-14T10:33:12;26.60;8.40
11700;DHT22;5906;51.660;6.674;2023-05-14T10:36:06;26.80;10.70
11700;DHT22;5906;51.660;6.674;2023-05-14T10:38:37;27.20;8.80
11700;DHT22;5906;51.660;6.674;2023-05-14T10:41:09;27.40;7.10
11700;DHT22;5906;51.660;6.674;2023-05-14T10:43:38;27.30;5.20
11700;DHT22;5906;51.660;6.674;2023-05-14T10:46:06;27.00;4.40
11700;DHT22;5906;51.660;6.674;2023-05-14T10:48:33;27.30;5.50
11700;DHT22;5906;51.660;6.674;2023-05-14T10:51:02;27.40;4.10
11700;DHT22;5906;51.660;6.674;2023-05-14T10:53:31;27.10;3.80
11700;DHT22;5906;51.660;6.674;2023-05-14T10:56:06;26.70;2.30
11700;DHT22;5906;51.660;6.674;2023-05-14T10:58:38;26.40;4.70
11700;DHT22;5906;51.660;6.674;2023-05-14T11:01:07;26.00;4.30
11700;DHT22;5906;51.660;6.674;2023-05-14T11:03:40;25.80;4.40
11700;DHT22;5906;51.660;6.674;2023-05-14T11:06:09;25.70;5.40
11700;DHT22;5906;51.660;6.674;2023-05-14T11:08:37;25.90;4.00
11700;DHT22;5906;51.660;6.674;2023-05-14T11:11:05;25.80;3.60
11700;DHT22;5906;51.660;6.674;2023-05-14T11:13:32;25.60;3.70
11700;DHT22;5906;51.660;6.674;2023-05-14T11:16:01;25.30;4.80
11700;DHT22;5906;51.660;6.674;2023-05-14T11:18:47;25.20;1.00
11700;DHT22;5906;51.660;6.674;2023-05-14T11:21:16;25.10;1.00
11700;DHT22;5906;51.660;6.674;2023-05-14T11:23:45;25.40;1.00
11700;DHT22;5906;51.660;6.674;2023-05-14T11:26:12;25.80;1.00
11700;DHT22;5906;51.660;6.674;2023-05-14T11:28:40;26.30;1.00
11700;DHT22;5906;51.660;6.674;2023-05-14T11:31:07;26.60;1.00
11700;DHT22;5906;51.660;6.674;2023-05-14T11:33:34;26.80;1.00
11700;DHT22;5906;51.660;6.674;2023-05-14T11:36:03;26.80;1.00
11700;DHT22;5906;51.660;6.674;2023-05-14T11:38:30;26.50;1.00
11700;DHT22;5906;51.660;6.674;2023-05-14T11:40:58;26.40;1.00
11700;DHT22;5906;51.660;6.674;2023-05-14T11:43:25;26.10;1.00
11700;DHT22;5906;51.660;6.674;2023-05-14T11:45:55;26.10;1.00
11700;DHT22;5906;51.660;6.674;2023-05-14T11:48:22;26.50;1.00
11700;DHT22;5906;51.660;6.674;2023-05-14T11:50:51;26.90;1.00
11700;DHT22;5906;51.660;6.674;2023-05-14T11:53:28;27.00;1.00
11700;DHT22;5906;51.660;6.674;2023-05-14T11:55:55;27.30;1.00
11700;DHT22;5906;51.660;6.674;2023-05-14T11:58:25;27.30;1.00
11700;DHT22;5906;51.660;6.674;2023-05-14T12:00:54;27.40;1.00
11700;DHT22;5906;51.660;6.674;2023-05-14T12:03:21;27.30;1.00
11700;DHT22;5906;51.660;6.674;2023-05-14T12:05:59;27.50;1.00
11700;DHT22;5906;51.660;6.674;2023-05-14T12:08:29;27.30;1.00
11700;DHT22;5906;51.660;6.674;2023-05-14T12:11:00;27.30;1.00
11700;DHT22;5906;51.660;6.674;2023-05-14T12:13:31;27.30;1.00
11700;DHT22;5906;51.660;6.674;2023-05-14T12:16:00;27.30;1.00
11700;DHT22;5906;51.660;6.674;2023-05-14T12:18:30;27.60;1.00
11700;DHT22;5906;51.660;6.674;2023-05-14T12:21:02;27.70;1.00
11700;DHT22;5906;51.660;6.674;2023-05-14T12:23:30;27.90;1.00
11700;DHT22;5906;51.660;6.674;2023-05-14T12:26:05;28.10;1.00
11700;DHT22;5906;51.660;6.674;2023-05-14T12:28:34;28.00;1.00
11700;DHT22;5906;51.660;6.674;2023-05-14T12:31:04;27.60;1.00
11700;DHT22;5906;51.660;6.674;2023-05-14T12:33:32;27.30;1.00
11700;DHT22;5906;51.660;6.674;2023-05-14T12:35:59;27.30;1.00
11700;DHT22;5906;51.660;6.674;2023-05-14T12:38:32;27.50;1.00
11700;DHT22;5906;51.660;6.674;2023-05-14T12:40:59;27.20;1.00
11700;DHT22;5906;51.660;6.674;2023-05-14T12:43:27;27.10;1.00
11700;DHT22;5906;51.660;6.674;2023-05-14T12:45:57;27.20;1.00
11700;DHT22;5906;51.660;6.674;2023-05-14T12:48:24;27.30;1.00
11700;DHT22;5906;51.660;6.674;2023-05-14T12:50:51;27.50;1.00
11700;DHT22;5906;51.660;6.674;2023-05-14T12:53:18;27.60;1.00
11700;DHT22;5906;51.660;6.674;2023-05-14T12:55:45;27.40;1.00
11700;DHT22;5906;51.660;6.674;2023-05-14T12:58:12;27.20;1.00
11700;DHT22;5906;51.660;6.674;2023-05-14T13:00:39;26.80;1.00
11700;DHT22;5906;51.660;6.674;2023-05-14T13:03:06;26.90;1.00
11700;DHT22;5906;51.660;6.674;2023-05-14T13:05:33;26.90;1.00
11700;DHT22;5906;51.660;6.674;2023-05-14T13:08:01;27.10;1.00
11700;DHT22;5906;51.660;6.674;2023-05-14T13:10:29;27.30;1.00
11700;DHT22;5906;51.660;6.674;2023-05-14T13:12:56;27.30;1.00
11700;DHT22;5906;51.660;6.674;2023-05-14T13:15:24;27.00;1.00
11700;DHT22;5906;51.660;6.674;2023-05-14T13:17:51;27.20;1.00
11700;DHT22;5906;51.660;6.674;2023-05-14T13:20:18;27.50;1.00
11700;DHT22;5906;51.660;6.674;2023-05-14T13:22:45;27.10;1.00
11700;DHT22;5906;51.660;6.674;2023-05-14T13:25:12;27.00;1.00
11700;DHT22;5906;51.660;6.674;2023-05-14T13:27:39;27.20;1.00
11700;DHT22;5906;51.660;6.674;2023-05-14T13:30:07;27.20;1.00
11700;DHT22;5906;51.660;6.674;2023-05-14T13:32:34;27.40;1.00
11700;DHT22;5906;51.660;6.674;2023-05-14T13:35:01;27.40;1.00
11700;DHT22;5906;51.660;6.674;2023-05-14T13:37:28;27.40;1.00
11700;DHT22;5906;51.660;6.674;2023-05-14T13:39:55;27.50;1.00
11700;DHT22;5906;51.660;6.674;2023-05-14T13:42:22;27.70;1.00
11700;DHT22;5906;51.660;6.674;2023-05-14T13:44:49;27.60;1.00
11700;DHT22;5906;51.660;6.674;2023-05-14T13:47:16;27.50;1.00
11700;DHT22;5906;51.660;6.674;2023-05-14T13:49:43;27.40;1.00
11700;DHT22;5906;51.660;6.674;2023-05-14T13:52:10;27.40;1.00
11700;DHT22;5906;51.660;6.674;2023-05-14T13:54:40;27.00;1.00
11700;DHT22;5906;51.660;6.674;2023-05-14T13:57:08;27.20;1.00
11700;DHT22;5906;51.660;6.674;2023-05-14T13:59:35;27.10;1.00
11700;DHT22;5906;51.660;6.674;2023-05-14T14:02:02;27.10;1.00
11700;DHT22;5906;51.660;6.674;2023-05-14T14:04:29;26.90;1.00
11700;DHT22;5906;51.660;6.674;2023-05-14T14:06:57;26.80;1.00
11700;DHT22;5906;51.660;6.674;2023-05-14T14:09:24;26.70;1.00
11700;DHT22;5906;51.660;6.674;2023-05-14T14:11:51;26.80;1.00
11700;DHT22;5906;51.660;6.674;2023-05-14T14:14:19;26.70;1.00
11700;DHT22;5906;51.660;6.674;2023-05-14T14:16:46;26.60;1.00
11700;DHT22;5906;51.660;6.674;2023-05-14T14:19:13;26.50;1.00
11700;DHT22;5906;51.660;6.674;2023-05-14T14:21:43;26.70;1.00
11700;DHT22;5906;51.660;6.674;2023-05-14T14:24:11;26.50;1.00
11700;DHT22;5906;51.660;6.674;2023-05-14T14:26:37;26.40;1.00
11700;DHT22;5906;51.660;6.674;2023-05-14T14:29:04;26.30;1.00
11700;DHT22;5906;51.660;6.674;2023-05-14T14:31:35;26.20;1.00
11700;DHT22;5906;51.660;6.674;2023-05-14T14:34:02;26.20;1.00
11700;DHT22;5906;51.660;6.674;2023-05-14T14:36:29;26.10;1.00
11700;DHT22;5906;51.660;6.674;2023-05-14T14:38:57;26.20;1.00
11700;DHT22;5906;51.660;6.674;2023-05-14T14:41:24;26.10;1.00
11700;DHT22;5906;51.660;6.674;2023-05-14T14:43:52;26.10;1.00
11700;DHT22;5906;51.660;6.674;2023-05-14T14:46:18;26.10;1.00
11700;DHT22;5906;51.660;6.674;2023-05-14T14:48:45;26.00;1.00
11700;DHT22;5906;51.660;6.674;2023-05-14T14:51:12;25.80;1.00
11700;DHT22;5906;51.660;6.674;2023-05-14T14:53:39;25.90;1.00
11700;DHT22;5906;51.660;6.674;2023-05-14T14:56:06;26.00;1.00
11700;DHT22;5906;51.660;6.674;2023-05-14T14:58:33;26.00;1.00
11700;DHT22;5906;51.660;6.674;2023-05-14T15:01:00;25.60;1.00
11700;DHT22;5906;51.660;6.674;2023-05-14T15:03:27;25.50;1.00
11700;DHT22;5906;51.660;6.674;2023-05-14T15:05:54;25.40;1.00
11700;DHT22;5906;51.660;6.674;2023-05-14T15:08:24;25.30;1.00
11700;DHT22;5906;51.660;6.674;2023-05-14T15:10:56;25.20;1.00
11700;DHT22;5906;51.660;6.674;2023-05-14T15:13:23;25.10;1.00
11700;DHT22;5906;51.660;6.674;2023-05-14T15:15:50;25.20;1.00
11700;DHT22;5906;51.660;6.674;2023-05-14T15:18:18;25.10;1.00
11700;DHT22;5906;51.660;6.674;2023-05-14T15:20:45;24.90;1.00
11700;DHT22;5906;51.660;6.674;2023-05-14T15:23:12;24.70;1.00
11700;DHT22;5906;51.660;6.674;2023-05-14T15:25:39;24.60;1.00
11700;DHT22;5906;51.660;6.674;2023-05-14T15:28:06;24.50;1.00
11700;DHT22;5906;51.660;6.674;2023-05-14T15:30:33;24.60;1.00
11700;DHT22;5906;51.660;6.674;2023-05-14T15:33:00;24.50;1.00
11700;DHT22;5906;51.660;6.674;2023-05-14T15:35:27;24.70;1.00
11700;DHT22;5906;51.660;6.674;2023-05-14T15:37:55;24.70;1.00
11700;DHT22;5906;51.660;6.674;2023-05-14T15:40:26;24.70;1.00
11700;DHT22;5906;51.660;6.674;2023-05-14T15:42:53;24.60;1.00
11700;DHT22;5906;51.660;6.674;2023-05-14T15:45:20;24.50;1.00
11700;DHT22;5906;51.660;6.674;2023-05-14T15:47:46;24.40;1.00
11700;DHT22;5906;51.660;6.674;2023-05-14T15:50:13;24.30;1.00
11700;DHT22;5906;51.660;6.674;2023-05-14T15:52:40;24.10;1.00
11700;DHT22;5906;51.660;6.674;2023-05-14T15:55:08;24.10;1.00
11700;DHT22;5906;51.660;6.674;2023-05-14T15:57:35;24.00;1.00
11700;DHT22;5906;51.660;6.674;2023-05-14T16:00:02;24.10;1.00
11700;DHT22;5906;51.660;6.674;2023-05-14T16:02:37;24.00;1.00
11700;DHT22;5906;51.660;6.674;2023-05-14T16:05:05;24.00;1.00
11700;DHT22;5906;51.660;6.674;2023-05-14T16:07:32;23.90;1.00